createdAt,value
2019-02-09T00:02:24.978Z,99963.86
2019-02-09T00:04:54.657Z,99952.61
2019-02-09T00:07:25.318Z,99962.70
2019-02-09T00:09:54.934Z,99961.09
2019-02-09T00:12:26.252Z,99950.48
2019-02-09T00:14:55.685Z,99944.64
2019-02-09T00:17:26.110Z,99947.34
2019-02-09T00:19:57.002Z,99947.97
2019-02-09T00:22:26.513Z,99945.63
2019-02-09T00:24:55.996Z,99940.44
2019-02-09T00:27:25.564Z,99931.12
2019-02-09T00:29:56.094Z,99933.39
2019-02-09T00:32:25.522Z,99927.26
2019-02-09T00:34:56.137Z,99921.46
2019-02-09T00:37:25.584Z,99920.39
2019-02-09T00:39:56.038Z,99910.53
2019-02-09T00:42:25.916Z,99902.52
2019-02-09T00:44:57.335Z,99889.16
2019-02-09T00:47:26.887Z,99889.88
2019-02-09T00:49:56.581Z,99886.70
2019-02-09T00:52:27.212Z,99895.52
2019-02-09T00:54:56.661Z,99888.12
2019-02-09T00:57:26.420Z,99882.20
2019-02-09T00:59:56.884Z,99881.11
2019-02-09T01:02:26.540Z,99876.61
2019-02-09T01:04:56.492Z,99877.52
2019-02-09T01:07:25.928Z,99870.48
2019-02-09T01:09:56.458Z,99866.60
2019-02-09T01:12:26.007Z,99866.95
2019-02-09T01:14:56.757Z,99864.41
2019-02-09T01:17:28.012Z,99865.38
2019-02-09T01:19:58.627Z,99869.77
2019-02-09T01:22:28.154Z,99862.17
2019-02-09T01:24:57.660Z,99862.17
2019-02-09T01:27:28.314Z,99851.30
2019-02-09T01:30:02.570Z,99846.87
2019-02-09T01:32:29.940Z,99854.77
2019-02-09T01:35:03.064Z,99857.63
2019-02-09T01:37:33.551Z,99850.87
2019-02-09T01:40:04.411Z,99850.81
2019-02-09T01:42:35.500Z,99851.55
2019-02-09T01:45:07.521Z,99853.90
2019-02-09T01:47:38.658Z,99844.36
2019-02-09T01:50:10.107Z,99838.52
2019-02-09T01:52:41.669Z,99843.75
2019-02-09T01:55:14.290Z,99827.02
2019-02-09T01:57:44.747Z,99825.44
2019-02-09T02:00:16.747Z,99813.59
2019-02-09T02:02:46.248Z,99814.19
2019-02-09T02:05:18.127Z,99809.92
2019-02-09T02:07:49.351Z,99817.58
2019-02-09T02:10:42.280Z,99800.59
2019-02-09T02:13:13.027Z,99809.24
2019-02-09T02:15:45.790Z,99790.91
2019-02-09T02:18:15.312Z,99795.65
2019-02-09T02:20:45.913Z,99798.56
2019-02-09T02:23:16.763Z,99782.38
2019-02-09T02:25:47.628Z,99791.27
2019-02-09T02:28:18.563Z,99786.60
2019-02-09T02:30:48.160Z,99784.84
2019-02-09T02:33:17.651Z,99777.70
2019-02-09T02:35:47.157Z,99768.19
2019-02-09T02:38:18.046Z,99764.63
2019-02-09T02:40:47.596Z,99765.64
2019-02-09T02:43:17.225Z,99755.55
2019-02-09T02:45:49.705Z,99760.28
2019-02-09T02:48:19.213Z,99743.39
2019-02-09T02:50:48.756Z,99740.10
2019-02-09T02:53:18.162Z,99733.70
2019-02-09T02:55:47.784Z,99733.14
2019-02-09T02:58:18.295Z,99728.14
2019-02-09T03:00:48.805Z,99710.23
2019-02-09T03:03:18.507Z,99704.91
2019-02-09T03:05:49.401Z,99704.76
2019-02-09T03:08:22.142Z,99704.80
2019-02-09T03:10:51.664Z,99703.39
2019-02-09T03:13:21.093Z,99697.52
2019-02-09T03:15:51.818Z,99693.63
2019-02-09T03:18:21.604Z,99693.55
2019-02-09T03:20:52.495Z,99693.55
2019-02-09T03:23:21.919Z,99702.11
2019-02-09T03:25:51.695Z,99698.75
2019-02-09T03:28:21.273Z,99690.66
2019-02-09T03:30:50.810Z,99698.78
2019-02-09T03:33:20.522Z,99709.11
2019-02-09T03:35:50.008Z,99691.16
2019-02-09T03:38:20.924Z,99688.19
2019-02-09T03:40:50.487Z,99698.35
2019-02-09T03:43:19.963Z,99684.00
2019-02-09T03:45:50.498Z,99691.62
2019-02-09T03:48:20.204Z,99693.11
2019-02-09T03:50:49.680Z,99685.41
2019-02-09T03:53:20.411Z,99679.39
2019-02-09T03:55:49.966Z,99672.79
2019-02-09T03:58:19.374Z,99673.61
2019-02-09T04:00:55.437Z,99672.20
2019-02-09T04:03:21.702Z,99663.05
2019-02-09T04:05:52.309Z,99674.34
2019-02-09T04:08:24.661Z,99669.42
2019-02-09T04:10:54.800Z,99668.41
2019-02-09T04:13:27.009Z,99678.02
2019-02-09T04:15:56.606Z,99666.61
2019-02-09T04:18:27.592Z,99672.36
2019-02-09T04:20:57.208Z,99673.92
2019-02-09T04:23:26.608Z,99662.55
2019-02-09T04:25:57.521Z,99666.72
2019-02-09T04:28:26.977Z,99669.84
2019-02-09T04:31:05.269Z,99656.86
2019-02-09T04:33:27.730Z,99655.53
2019-02-09T04:35:57.287Z,99657.27
2019-02-09T04:38:26.739Z,99644.89
2019-02-09T04:40:56.596Z,99635.97
2019-02-09T04:43:27.227Z,99643.18
2019-02-09T04:45:58.149Z,99643.89
2019-02-09T04:48:29.721Z,99644.86
2019-02-09T04:50:59.152Z,99648.50
2019-02-09T04:53:28.563Z,99651.75
2019-02-09T04:55:58.035Z,99645.53
2019-02-09T04:58:27.478Z,99650.59
2019-02-09T05:00:57.063Z,99650.24
2019-02-09T05:03:27.682Z,99651.66
2019-02-09T05:05:57.301Z,99645.69
2019-02-09T05:08:26.792Z,99651.90
2019-02-09T05:10:58.036Z,99655.12
2019-02-09T05:13:28.991Z,99648.70
2019-02-09T05:15:58.769Z,99655.80
2019-02-09T05:18:28.412Z,99654.70
2019-02-09T05:20:59.310Z,99637.45
2019-02-09T05:23:28.798Z,99647.61
2019-02-09T05:25:58.240Z,99638.19
2019-02-09T05:28:27.760Z,99638.55
2019-02-09T05:30:58.953Z,99634.16
2019-02-09T05:33:28.736Z,99637.09
2019-02-09T05:35:58.173Z,99641.17
2019-02-09T05:38:27.571Z,99632.72
2019-02-09T05:40:58.134Z,99628.82
2019-02-09T05:43:28.588Z,99633.97
2019-02-09T05:45:58.030Z,99643.63
2019-02-09T05:48:27.506Z,99640.48
2019-02-09T05:50:56.889Z,99636.94
2019-02-09T05:53:26.271Z,99629.82
2019-02-09T05:55:55.725Z,99627.81
2019-02-09T05:58:25.160Z,99635.49
2019-02-09T06:00:54.625Z,99627.40
2019-02-09T06:03:25.416Z,99627.48
2019-02-09T06:05:54.830Z,99628.30
2019-02-09T06:08:25.324Z,99629.75
2019-02-09T06:10:54.852Z,99614.78
2019-02-09T06:13:24.396Z,99629.28
2019-02-09T06:15:53.760Z,99645.11
2019-02-09T06:18:23.391Z,99635.02
2019-02-09T06:20:53.245Z,99626.98
2019-02-09T06:23:24.201Z,99641.52
2019-02-09T06:25:55.072Z,99652.47
2019-02-09T06:28:25.818Z,99654.46
2019-02-09T06:30:56.262Z,99653.83
2019-02-09T06:33:27.685Z,99658.52
2019-02-09T06:35:57.110Z,99650.44
2019-02-09T06:38:27.881Z,99646.91
2019-02-09T06:40:58.641Z,99661.30
2019-02-09T06:43:28.141Z,99673.61
2019-02-09T06:45:57.521Z,99666.66
2019-02-09T06:48:29.060Z,99655.79
2019-02-09T06:51:02.081Z,99652.85
2019-02-09T06:53:31.795Z,99665.83
2019-02-09T06:56:03.232Z,99668.84
2019-02-09T06:58:33.652Z,99682.91
2019-02-09T07:01:03.058Z,99676.14
2019-02-09T07:03:32.767Z,99691.65
2019-02-09T07:06:05.486Z,99684.72
2019-02-09T07:08:34.889Z,99672.62
2019-02-09T07:11:06.200Z,99682.41
2019-02-09T07:13:35.700Z,99672.30
2019-02-09T07:16:05.594Z,99665.23
2019-02-09T07:18:35.342Z,99667.54
2019-02-09T07:21:05.253Z,99669.45
2019-02-09T07:23:34.946Z,99676.09
2019-02-09T07:26:06.415Z,99675.03
2019-02-09T07:28:38.731Z,99669.18
2019-02-09T07:31:08.271Z,99679.50
2019-02-09T07:33:39.651Z,99684.86
2019-02-09T07:36:09.127Z,99686.47
2019-02-09T07:38:41.153Z,99697.55
2019-02-09T07:41:12.571Z,99692.02
2019-02-09T07:43:42.145Z,99699.57
2019-02-09T07:46:14.178Z,99702.48
2019-02-09T07:48:44.654Z,99701.70
2019-02-09T07:51:14.280Z,99706.65
2019-02-09T07:53:44.466Z,99706.65
2019-02-09T07:56:14.380Z,99703.77
2019-02-09T07:58:45.811Z,99696.11
2019-02-09T08:01:15.212Z,99713.48
2019-02-09T08:03:45.823Z,99718.87
2019-02-09T08:06:15.342Z,99713.83
2019-02-09T08:08:44.729Z,99717.16
2019-02-09T08:11:14.463Z,99717.86
2019-02-09T08:13:44.433Z,99718.30
2019-02-09T08:16:16.236Z,99724.66
2019-02-09T08:18:47.401Z,99728.50
2019-02-09T08:21:17.070Z,99716.30
2019-02-09T08:23:48.954Z,99714.53
2019-02-09T08:26:19.614Z,99730.41
2019-02-09T08:28:49.471Z,99727.20
2019-02-09T08:31:18.910Z,99727.64
2019-02-09T08:33:48.482Z,99728.08
2019-02-09T08:36:17.946Z,99724.58
2019-02-09T08:38:47.389Z,99723.17
2019-02-09T08:41:17.108Z,99734.34
2019-02-09T08:43:46.798Z,99731.06
2019-02-09T08:46:16.224Z,99734.25
2019-02-09T08:48:45.707Z,99728.94
2019-02-09T08:51:16.090Z,99736.86
2019-02-09T08:53:47.083Z,99734.82
2019-02-09T08:56:17.897Z,99735.72
2019-02-09T08:58:49.050Z,99741.86
2019-02-09T09:01:18.453Z,99736.81
2019-02-09T09:03:47.902Z,99746.05
2019-02-09T09:06:18.426Z,99739.18
2019-02-09T09:08:50.860Z,99752.16
2019-02-09T09:11:22.330Z,99746.64
2019-02-09T09:13:51.854Z,99749.97
2019-02-09T09:16:21.366Z,99739.80
2019-02-09T09:18:51.018Z,99746.05
2019-02-09T09:21:20.439Z,99755.59
2019-02-09T09:23:51.714Z,99757.20
2019-02-09T09:26:22.335Z,99765.10
2019-02-09T09:28:51.907Z,99759.73
2019-02-09T09:31:21.815Z,99758.92
2019-02-09T09:33:51.610Z,99754.58
2019-02-09T09:36:22.937Z,99757.45
2019-02-09T09:38:52.395Z,99747.20
2019-02-09T09:41:22.964Z,99753.61
2019-02-09T09:43:52.403Z,99763.91
2019-02-09T09:46:21.895Z,99756.78
2019-02-09T09:48:53.450Z,99750.33
2019-02-09T09:51:23.896Z,99752.91
2019-02-09T09:53:53.383Z,99753.91
2019-02-09T09:56:26.894Z,99756.89
2019-02-09T09:58:56.465Z,99777.66
2019-02-09T10:01:25.892Z,99776.91
2019-02-09T10:03:55.503Z,99762.36
2019-02-09T10:06:24.970Z,99781.14
2019-02-09T10:08:57.333Z,99776.08
2019-02-09T10:11:29.453Z,99795.59
2019-02-09T10:13:58.959Z,99781.52
2019-02-09T10:16:30.054Z,99787.48
2019-02-09T10:18:59.740Z,99790.34
2019-02-09T10:21:29.276Z,99795.08
2019-02-09T10:23:58.813Z,99805.70
2019-02-09T10:26:29.715Z,99813.89
2019-02-09T10:29:01.823Z,99809.02
2019-02-09T10:31:34.237Z,99818.21
2019-02-09T10:34:04.094Z,99806.55
2019-02-09T10:36:35.331Z,99794.45
2019-02-09T10:39:08.399Z,99794.23
2019-02-09T10:41:38.242Z,99807.45
2019-02-09T10:44:09.377Z,99798.77
2019-02-09T10:46:41.464Z,99797.78
2019-02-09T10:49:12.052Z,99784.64
2019-02-09T10:51:41.662Z,99789.06
2019-02-09T10:54:11.132Z,99801.28
2019-02-09T10:56:41.942Z,99797.27
2019-02-09T10:59:12.634Z,99792.50
2019-02-09T11:01:42.650Z,99780.53
2019-02-09T11:04:12.390Z,99790.34
2019-02-09T11:06:42.105Z,99792.38
2019-02-09T11:09:20.767Z,99786.70
2019-02-09T11:11:50.495Z,99774.24
2019-02-09T11:14:20.241Z,99787.66
2019-02-09T11:16:50.824Z,99779.27
2019-02-09T11:19:20.495Z,99805.38
2019-02-09T11:21:50.040Z,99777.84
2019-02-09T11:24:21.033Z,99781.02
2019-02-09T11:26:53.720Z,99784.20
2019-02-09T11:29:23.257Z,99771.93
2019-02-09T11:31:52.796Z,99782.57
2019-02-09T11:34:22.465Z,99798.04
2019-02-09T11:36:51.927Z,99783.38
2019-02-09T11:39:21.739Z,99791.38
2019-02-09T11:41:51.412Z,99793.09
2019-02-09T11:44:20.948Z,99785.84
2019-02-09T11:46:52.298Z,99784.30
2019-02-09T11:49:21.981Z,99801.63
2019-02-09T11:51:51.422Z,99789.25
2019-02-09T11:54:24.119Z,99783.42
2019-02-09T11:56:53.770Z,99785.03
2019-02-09T11:59:27.307Z,99779.58
2019-02-09T12:01:58.521Z,99790.69
2019-02-09T12:04:28.229Z,99775.55
2019-02-09T12:06:59.441Z,99769.52
2019-02-09T12:09:35.107Z,99777.77
2019-02-09T12:12:02.516Z,99765.89
2019-02-09T12:14:33.103Z,99775.10
2019-02-09T12:17:02.651Z,99789.55
2019-02-09T12:19:35.082Z,99770.98
2019-02-09T12:22:05.758Z,99783.21
2019-02-09T12:24:36.271Z,99780.08
2019-02-09T12:27:05.941Z,99782.03
2019-02-09T12:29:35.456Z,99766.27
2019-02-09T12:32:05.737Z,99779.95
2019-02-09T12:34:35.385Z,99777.42
2019-02-09T12:37:05.134Z,99769.30
2019-02-09T12:39:35.757Z,99786.51
2019-02-09T12:42:05.519Z,99790.77
2019-02-09T12:44:35.286Z,99782.41
2019-02-09T12:47:04.974Z,99786.63
2019-02-09T12:49:35.488Z,99779.83
2019-02-09T12:52:05.013Z,99776.56
2019-02-09T12:54:34.447Z,99783.48
2019-02-09T12:57:07.049Z,99772.82
2019-02-09T12:59:38.223Z,99773.07
2019-02-09T13:02:09.584Z,99771.23
2019-02-09T13:04:38.999Z,99763.23
2019-02-09T13:07:08.673Z,99788.09
2019-02-09T13:09:39.981Z,99769.30
2019-02-09T13:12:11.476Z,99787.62
2019-02-09T13:14:40.892Z,99782.63
2019-02-09T13:17:11.755Z,99776.56
2019-02-09T13:19:42.300Z,99779.86
2019-02-09T13:22:11.765Z,99778.50
2019-02-09T13:24:42.386Z,99776.22
2019-02-09T13:27:11.971Z,99770.30
2019-02-09T13:29:41.439Z,99764.36
2019-02-09T13:32:12.649Z,99778.41
2019-02-09T13:34:44.000Z,99762.50
2019-02-09T13:37:15.242Z,99772.94
2019-02-09T13:39:44.694Z,99777.07
2019-02-09T13:42:14.464Z,99774.41
2019-02-09T13:44:44.953Z,99767.95
2019-02-09T13:47:14.580Z,99776.43
2019-02-09T13:49:45.498Z,99770.27
2019-02-09T13:52:17.827Z,99777.89
2019-02-09T13:54:47.228Z,99788.57
2019-02-09T13:57:17.055Z,99783.52
2019-02-09T13:59:47.463Z,99747.70
2019-02-09T14:02:16.855Z,99774.63
2019-02-09T14:04:46.348Z,99779.36
2019-02-09T14:07:17.263Z,99784.07
2019-02-09T14:09:46.743Z,99775.44
2019-02-09T14:12:16.271Z,99774.47
2019-02-09T14:14:45.657Z,99771.44
2019-02-09T14:17:17.688Z,99774.73
2019-02-09T14:19:48.794Z,99774.73
2019-02-09T14:22:18.229Z,99778.11
2019-02-09T14:24:48.046Z,99800.72
2019-02-09T14:27:19.751Z,99794.30
2019-02-09T14:29:52.448Z,99794.06
2019-02-09T14:32:22.966Z,99794.43
2019-02-09T14:34:53.899Z,99793.91
2019-02-09T14:37:23.420Z,99823.12
2019-02-09T14:39:53.881Z,99800.09
2019-02-09T14:42:23.386Z,99825.69
2019-02-09T14:44:52.772Z,99821.56
2019-02-09T14:47:22.192Z,99837.63
